createdAt,value
2019-02-08T00:00:01.977Z,61.32
2019-02-08T00:00:33.241Z,61.33
2019-02-08T00:01:10.339Z,61.95
2019-02-08T00:01:41.571Z,61.76
2019-02-08T00:02:12.762Z,61.65
2019-02-08T00:02:44.004Z,61.46
2019-02-08T00:03:15.218Z,61.57
2019-02-08T00:03:46.457Z,62.54
2019-02-08T00:04:17.670Z,61.63
2019-02-08T00:04:48.881Z,61.59
2019-02-08T00:05:20.115Z,61.50
2019-02-08T00:05:51.384Z,61.48
2019-02-08T00:06:22.893Z,61.56
2019-02-08T00:06:54.092Z,61.61
2019-02-08T00:07:25.303Z,62.02
2019-02-08T00:07:56.507Z,61.54
2019-02-08T00:08:27.722Z,61.42
2019-02-08T00:08:58.926Z,61.71
2019-02-08T00:09:30.219Z,61.82
2019-02-08T00:10:01.478Z,61.95
2019-02-08T00:10:33.074Z,61.74
2019-02-08T00:11:04.287Z,61.90
2019-02-08T00:11:35.492Z,61.87
2019-02-08T00:12:07.218Z,61.76
2019-02-08T00:12:38.401Z,61.78
2019-02-08T00:13:09.602Z,61.99
2019-02-08T00:13:40.811Z,62.04
2019-02-08T00:14:12.018Z,62.17
2019-02-08T00:14:43.224Z,61.73
2019-02-08T00:15:14.454Z,61.57
2019-02-08T00:15:45.711Z,61.53
2019-02-08T00:16:16.923Z,62.41
2019-02-08T00:16:48.406Z,62.90
2019-02-08T00:17:19.682Z,61.61
2019-02-08T00:17:50.902Z,61.57
2019-02-08T00:18:22.106Z,61.56
2019-02-08T00:18:53.318Z,61.53
2019-02-08T00:19:24.523Z,61.55
2019-02-08T00:19:55.736Z,61.52
2019-02-08T00:20:26.944Z,61.50
2019-02-08T00:20:58.208Z,61.68
2019-02-08T00:21:29.427Z,61.74
2019-02-08T00:22:00.629Z,61.83
2019-02-08T00:22:32.202Z,62.49
2019-02-08T00:23:03.411Z,62.13
2019-02-08T00:23:34.608Z,61.90
2019-02-08T00:24:05.803Z,61.99
2019-02-08T00:24:37.000Z,62.35
2019-02-08T00:25:08.267Z,62.29
2019-02-08T00:25:39.476Z,62.30
2019-02-08T00:26:10.664Z,62.71
2019-02-08T00:26:41.847Z,62.55
2019-02-08T00:27:13.223Z,62.59
2019-02-08T00:27:44.421Z,62.59
2019-02-08T00:28:15.697Z,62.80
2019-02-08T00:28:46.908Z,62.84
2019-02-08T00:29:18.105Z,62.81
2019-02-08T00:29:49.303Z,62.87
2019-02-08T00:30:20.568Z,62.92
2019-02-08T00:30:51.764Z,63.08
2019-02-08T00:31:23.010Z,63.04
2019-02-08T00:31:54.215Z,63.30
2019-02-08T00:32:25.420Z,63.25
2019-02-08T00:32:56.887Z,63.50
2019-02-08T00:33:28.072Z,63.63
2019-02-08T00:33:59.289Z,63.59
2019-02-08T00:34:30.489Z,64.28
2019-02-08T00:35:01.698Z,64.24
2019-02-08T00:35:32.903Z,63.35
2019-02-08T00:36:04.108Z,62.93
2019-02-08T00:36:35.346Z,62.96
2019-02-08T00:37:06.559Z,62.87
2019-02-08T00:37:37.752Z,63.06
2019-02-08T00:38:08.951Z,62.74
2019-02-08T00:38:40.417Z,62.52
2019-02-08T00:39:11.620Z,62.51
2019-02-08T00:39:42.839Z,62.46
2019-02-08T00:40:14.073Z,62.05
2019-02-08T00:40:45.273Z,62.14
2019-02-08T00:41:16.493Z,62.40
2019-02-08T00:41:47.713Z,62.42
2019-02-08T00:42:18.925Z,63.19
2019-02-08T00:42:50.142Z,63.93
2019-02-08T00:43:21.528Z,62.58
2019-02-08T00:43:52.746Z,62.23
2019-02-08T00:44:24.000Z,63.21
2019-02-08T00:44:55.214Z,62.50
2019-02-08T00:45:26.472Z,62.14
2019-02-08T00:45:57.694Z,62.09
2019-02-08T00:46:28.905Z,62.14
2019-02-08T00:47:00.162Z,64.03
2019-02-08T00:47:31.382Z,63.97
2019-02-08T00:48:02.605Z,62.43
2019-02-08T00:48:33.814Z,62.15
2019-02-08T00:49:05.390Z,62.45
2019-02-08T00:49:36.608Z,62.74
2019-02-08T00:50:07.816Z,64.17
2019-02-08T00:50:39.047Z,63.79
2019-02-08T00:51:10.255Z,62.51
2019-02-08T00:51:41.490Z,62.48
2019-02-08T00:52:12.712Z,62.17
2019-02-08T00:52:43.951Z,62.25
2019-02-08T00:53:15.162Z,62.44
2019-02-08T00:53:46.364Z,62.54
2019-02-08T00:54:17.573Z,62.52
2019-02-08T00:54:49.162Z,62.58
2019-02-08T00:55:20.369Z,62.85
2019-02-08T00:55:51.576Z,63.05
2019-02-08T00:56:22.827Z,63.18
2019-02-08T00:56:54.055Z,63.72
2019-02-08T00:57:25.254Z,63.45
2019-02-08T00:57:56.458Z,63.61
2019-02-08T00:58:27.893Z,63.40
2019-02-08T00:58:59.101Z,64.07
2019-02-08T00:59:30.492Z,63.40
2019-02-08T01:00:01.699Z,62.98
2019-02-08T01:00:32.916Z,62.92
2019-02-08T01:01:04.128Z,63.15
2019-02-08T01:01:35.348Z,63.50
2019-02-08T01:02:06.561Z,63.37
2019-02-08T01:02:37.830Z,63.32
2019-02-08T01:03:09.079Z,63.32
2019-02-08T01:03:40.289Z,63.26
2019-02-08T01:04:11.518Z,63.73
2019-02-08T01:04:42.721Z,63.10
2019-02-08T01:05:14.209Z,63.60
2019-02-08T01:05:45.428Z,63.20
2019-02-08T01:06:16.631Z,63.07
2019-02-08T01:06:47.856Z,63.13
2019-02-08T01:07:19.087Z,63.16
2019-02-08T01:07:50.358Z,64.78
2019-02-08T01:08:21.554Z,63.55
2019-02-08T01:08:52.767Z,63.37
2019-02-08T01:09:23.975Z,63.25
2019-02-08T01:09:55.454Z,63.29
2019-02-08T01:10:26.710Z,63.43
2019-02-08T01:10:57.923Z,63.48
2019-02-08T01:11:29.187Z,63.60
2019-02-08T01:12:00.399Z,63.65
2019-02-08T01:12:31.599Z,63.73
2019-02-08T01:13:02.859Z,63.82
2019-02-08T01:13:34.044Z,63.73
2019-02-08T01:14:05.278Z,63.74
2019-02-08T01:14:36.536Z,63.77
2019-02-08T01:15:07.747Z,63.69
2019-02-08T01:15:39.319Z,63.65
2019-02-08T01:16:10.532Z,63.57
2019-02-08T01:16:41.735Z,63.57
2019-02-08T01:17:12.953Z,63.56
2019-02-08T01:17:44.194Z,63.62
2019-02-08T01:18:15.413Z,63.73
2019-02-08T01:18:46.616Z,64.90
2019-02-08T01:19:17.817Z,64.01
2019-02-08T01:19:49.078Z,63.64
2019-02-08T01:20:20.278Z,63.29
2019-02-08T01:20:51.486Z,63.32
2019-02-08T01:21:22.975Z,63.28
2019-02-08T01:21:54.182Z,63.20
2019-02-08T01:22:25.407Z,63.21
2019-02-08T01:22:56.646Z,63.24
2019-02-08T01:23:27.859Z,63.25
2019-02-08T01:23:59.106Z,63.27
2019-02-08T01:24:30.307Z,63.38
2019-02-08T01:25:01.522Z,63.47
2019-02-08T01:25:32.722Z,63.71
2019-02-08T01:26:03.948Z,63.84
2019-02-08T01:26:35.162Z,63.91
2019-02-08T01:27:06.360Z,63.85
2019-02-08T01:27:37.571Z,63.83
2019-02-08T01:28:08.782Z,64.22
2019-02-08T01:28:40.011Z,64.03
2019-02-08T01:29:11.205Z,64.07
2019-02-08T01:29:42.420Z,64.34
2019-02-08T01:30:13.636Z,64.13
2019-02-08T01:30:44.844Z,63.53
2019-02-08T01:31:16.079Z,63.59
2019-02-08T01:31:47.343Z,63.60
2019-02-08T01:32:18.566Z,63.54
2019-02-08T01:32:49.788Z,63.62
2019-02-08T01:33:21.053Z,63.78
2019-02-08T01:33:52.254Z,63.83
2019-02-08T01:34:23.453Z,64.71
2019-02-08T01:34:54.661Z,65.99
2019-02-08T01:35:25.871Z,64.44
2019-02-08T01:35:57.066Z,63.92
2019-02-08T01:36:28.315Z,63.59
2019-02-08T01:36:59.525Z,63.47
2019-02-08T01:37:30.751Z,63.54
2019-02-08T01:38:01.965Z,63.56
2019-02-08T01:38:33.167Z,63.35
2019-02-08T01:39:04.373Z,63.27
2019-02-08T01:39:35.582Z,63.41
2019-02-08T01:40:06.832Z,63.46
2019-02-08T01:40:38.048Z,63.46
2019-02-08T01:41:09.267Z,63.66
2019-02-08T01:41:40.518Z,63.71
2019-02-08T01:42:11.723Z,64.11
2019-02-08T01:42:42.934Z,64.22
2019-02-08T01:43:14.136Z,64.33
2019-02-08T01:43:45.339Z,64.65
2019-02-08T01:44:16.548Z,64.77
2019-02-08T01:44:47.740Z,64.83
2019-02-08T01:45:18.963Z,64.81
2019-02-08T01:45:50.556Z,64.93
2019-02-08T01:46:21.781Z,64.91
2019-02-08T01:46:52.982Z,64.95
2019-02-08T01:47:24.185Z,64.96
2019-02-08T01:47:55.417Z,67.49
2019-02-08T01:48:26.629Z,67.33
2019-02-08T01:48:57.851Z,65.28
2019-02-08T01:49:29.089Z,64.64
2019-02-08T01:50:00.293Z,64.51
2019-02-08T01:50:31.488Z,64.73
2019-02-08T01:51:02.701Z,64.84
2019-02-08T01:51:33.946Z,64.93
2019-02-08T01:52:05.197Z,65.04
2019-02-08T01:52:36.379Z,66.32
2019-02-08T01:53:07.592Z,66.17
2019-02-08T01:53:38.801Z,65.56
2019-02-08T01:54:10.007Z,65.49
2019-02-08T01:54:41.211Z,65.57
2019-02-08T01:55:12.445Z,65.72
2019-02-08T01:55:43.710Z,66.49
2019-02-08T01:56:14.939Z,67.06
2019-02-08T01:56:46.134Z,66.29
2019-02-08T01:57:17.355Z,66.15
2019-02-08T01:57:48.567Z,66.23
2019-02-08T01:58:19.781Z,66.38
2019-02-08T01:58:51.037Z,66.60
2019-02-08T01:59:22.253Z,66.64
2019-02-08T01:59:53.453Z,66.65
2019-02-08T02:00:24.669Z,67.21
2019-02-08T02:00:55.876Z,67.05
2019-02-08T02:01:27.087Z,67.01
2019-02-08T02:01:58.291Z,67.03
2019-02-08T02:02:29.548Z,66.96
2019-02-08T02:03:00.759Z,67.21
2019-02-08T02:03:31.962Z,67.18
2019-02-08T02:04:03.186Z,67.09
2019-02-08T02:04:34.409Z,67.21
2019-02-08T02:05:05.619Z,67.27
2019-02-08T02:05:36.843Z,67.42
2019-02-08T02:06:08.044Z,67.50
2019-02-08T02:06:39.242Z,69.21
2019-02-08T02:07:10.452Z,68.68
2019-02-08T02:07:41.713Z,68.09
2019-02-08T02:08:12.921Z,67.91
2019-02-08T02:08:44.121Z,67.87
2019-02-08T02:09:15.339Z,67.82
2019-02-08T02:09:46.540Z,67.63
2019-02-08T02:10:20.170Z,67.60
2019-02-08T02:10:51.385Z,67.59
2019-02-08T02:11:22.597Z,68.01
2019-02-08T02:11:53.806Z,68.12
2019-02-08T02:12:25.026Z,68.20
2019-02-08T02:12:56.280Z,68.29
2019-02-08T02:13:27.481Z,68.31
2019-02-08T02:13:58.689Z,68.55
2019-02-08T02:14:29.897Z,68.94
2019-02-08T02:15:01.118Z,68.96
2019-02-08T02:15:32.327Z,68.99
2019-02-08T02:16:04.165Z,68.99
2019-02-08T02:16:35.583Z,69.09
2019-02-08T02:17:06.792Z,69.11
2019-02-08T02:17:37.988Z,69.08
2019-02-08T02:18:09.220Z,69.17
2019-02-08T02:18:40.437Z,69.17
2019-02-08T02:19:11.650Z,69.29
2019-02-08T02:19:42.861Z,69.29
2019-02-08T02:20:14.098Z,69.64
2019-02-08T02:20:47.542Z,69.24
2019-02-08T02:21:18.748Z,69.08
2019-02-08T02:21:49.985Z,69.02
2019-02-08T02:22:21.201Z,69.01
2019-02-08T02:22:52.461Z,68.81
2019-02-08T02:23:23.692Z,68.64
2019-02-08T02:23:56.099Z,68.77
2019-02-08T02:24:27.677Z,68.82
2019-02-08T02:24:58.885Z,68.95
2019-02-08T02:25:30.099Z,69.04
2019-02-08T02:26:01.299Z,68.72
2019-02-08T02:26:32.535Z,68.89
2019-02-08T02:27:03.739Z,68.95
2019-02-08T02:27:34.949Z,68.96
2019-02-08T02:28:06.205Z,69.11
2019-02-08T02:28:37.468Z,69.29
2019-02-08T02:29:08.664Z,69.47
2019-02-08T02:29:39.945Z,69.65
2019-02-08T02:30:11.158Z,69.79
2019-02-08T02:30:42.375Z,69.89
2019-02-08T02:31:13.609Z,70.00
2019-02-08T02:31:44.801Z,70.12
2019-02-08T02:32:16.014Z,70.17
2019-02-08T02:32:47.226Z,70.32
2019-02-08T02:33:18.493Z,70.29
2019-02-08T02:33:49.690Z,70.42
2019-02-08T02:34:20.937Z,70.42
2019-02-08T02:34:52.276Z,70.58
2019-02-08T02:35:23.481Z,70.75
2019-02-08T02:35:54.713Z,71.06
2019-02-08T02:36:25.919Z,71.15
2019-02-08T02:36:57.122Z,71.13
2019-02-08T02:37:28.337Z,71.14
2019-02-08T02:37:59.571Z,71.17
2019-02-08T02:38:30.775Z,71.28
2019-02-08T02:39:01.977Z,71.33
2019-02-08T02:39:33.201Z,71.17
2019-02-08T02:40:04.447Z,70.98
2019-02-08T02:40:35.644Z,70.83
2019-02-08T02:41:06.857Z,70.96
2019-02-08T02:41:38.066Z,70.96
2019-02-08T02:42:09.276Z,71.16
2019-02-08T02:42:40.490Z,71.19
2019-02-08T02:43:11.705Z,70.89
2019-02-08T02:43:42.916Z,70.78
2019-02-08T02:44:14.123Z,70.62
2019-02-08T02:44:45.346Z,70.73
2019-02-08T02:45:17.484Z,70.76
2019-02-08T02:45:48.687Z,70.84
2019-02-08T02:46:19.909Z,70.85
2019-02-08T02:46:51.105Z,71.03
2019-02-08T02:47:22.312Z,71.06
2019-02-08T02:47:53.539Z,70.94
2019-02-08T02:48:24.793Z,71.06
2019-02-08T02:48:55.999Z,71.13
2019-02-08T02:49:27.208Z,71.51
2019-02-08T02:49:58.411Z,71.38
2019-02-08T02:50:29.633Z,71.30
2019-02-08T02:51:00.890Z,71.34
2019-02-08T02:51:32.110Z,71.31
2019-02-08T02:52:03.317Z,71.40
2019-02-08T02:52:34.529Z,71.49
2019-02-08T02:53:05.739Z,71.46
2019-02-08T02:53:36.939Z,71.40
2019-02-08T02:54:08.141Z,71.43
2019-02-08T02:54:39.375Z,71.23
2019-02-08T02:55:10.582Z,71.09
2019-02-08T02:55:41.799Z,71.01
2019-02-08T02:56:13.056Z,70.96
2019-02-08T02:56:44.260Z,70.96
2019-02-08T02:57:15.473Z,70.97
2019-02-08T02:57:46.682Z,70.98
2019-02-08T02:58:17.882Z,70.98
2019-02-08T02:58:49.088Z,70.95
2019-02-08T02:59:20.299Z,70.89
2019-02-08T02:59:51.494Z,71.93
2019-02-08T03:00:22.708Z,71.94
2019-02-08T03:00:53.900Z,70.93
2019-02-08T03:01:26.136Z,70.42
2019-02-08T03:01:57.336Z,70.04
2019-02-08T03:02:28.540Z,69.90
2019-02-08T03:02:59.744Z,69.78
2019-02-08T03:03:30.941Z,69.68
2019-02-08T03:04:02.145Z,69.71
2019-02-08T03:04:33.346Z,69.75
2019-02-08T03:05:04.546Z,69.53
2019-02-08T03:05:35.742Z,69.27
2019-02-08T03:06:06.995Z,69.41
2019-02-08T03:06:38.228Z,69.17
2019-02-08T03:07:09.548Z,69.07
2019-02-08T03:07:40.781Z,68.89
2019-02-08T03:08:11.997Z,68.69
2019-02-08T03:08:43.301Z,68.69
2019-02-08T03:09:14.564Z,68.75
2019-02-08T03:09:45.780Z,68.68
2019-02-08T03:10:17.008Z,68.29
2019-02-08T03:10:48.230Z,68.00
2019-02-08T03:11:19.445Z,67.88
2019-02-08T03:11:50.647Z,67.95
2019-02-08T03:12:22.234Z,67.87
2019-02-08T03:12:53.459Z,67.87
2019-02-08T03:13:24.718Z,67.95
2019-02-08T03:13:57.021Z,68.04
2019-02-08T03:14:28.231Z,67.90
2019-02-08T03:14:59.430Z,67.94
2019-02-08T03:15:30.647Z,68.62
2019-02-08T03:16:01.864Z,69.36
2019-02-08T03:16:33.079Z,70.45
2019-02-08T03:17:04.296Z,68.75
2019-02-08T03:17:35.491Z,67.59
2019-02-08T03:18:06.698Z,68.65
2019-02-08T03:18:37.945Z,69.32
2019-02-08T03:19:09.148Z,68.26
2019-02-08T03:19:40.348Z,67.62
2019-02-08T03:20:11.561Z,67.02
2019-02-08T03:20:42.775Z,67.02
2019-02-08T03:21:13.979Z,66.63
2019-02-08T03:21:45.183Z,66.70
2019-02-08T03:22:16.390Z,67.00
2019-02-08T03:22:49.852Z,67.14
2019-02-08T03:23:21.052Z,65.79
2019-02-08T03:23:52.322Z,65.22
2019-02-08T03:24:23.533Z,64.94
2019-02-08T03:24:54.753Z,64.96
2019-02-08T03:25:28.379Z,64.99
2019-02-08T03:25:59.605Z,65.02
2019-02-08T03:26:30.827Z,65.02
2019-02-08T03:27:02.031Z,65.05
2019-02-08T03:27:33.241Z,65.11
2019-02-08T03:28:04.451Z,65.24
2019-02-08T03:28:35.666Z,65.27
2019-02-08T03:29:06.878Z,65.32
2019-02-08T03:29:38.131Z,65.40
2019-02-08T03:30:09.351Z,65.58
2019-02-08T03:30:40.559Z,65.71
2019-02-08T03:31:11.784Z,65.91
2019-02-08T03:31:42.995Z,66.27
2019-02-08T03:32:14.224Z,66.91
2019-02-08T03:32:45.403Z,67.15
2019-02-08T03:33:16.660Z,66.62
2019-02-08T03:33:47.849Z,66.69
2019-02-08T03:34:19.090Z,66.72
2019-02-08T03:34:50.301Z,66.74
2019-02-08T03:35:21.508Z,66.81
2019-02-08T03:35:54.513Z,67.33
2019-02-08T03:36:25.721Z,67.30
2019-02-08T03:36:56.936Z,66.87
2019-02-08T03:37:28.166Z,67.08
2019-02-08T03:37:59.417Z,66.79
2019-02-08T03:38:30.673Z,66.54
2019-02-08T03:39:01.889Z,66.80
2019-02-08T03:39:33.086Z,66.88
2019-02-08T03:40:04.281Z,66.58
2019-02-08T03:40:35.500Z,66.33
2019-02-08T03:41:06.734Z,66.29
2019-02-08T03:41:37.940Z,66.35
2019-02-08T03:42:09.141Z,66.39
2019-02-08T03:42:40.341Z,66.39
2019-02-08T03:43:11.551Z,66.44
2019-02-08T03:43:42.802Z,66.45
2019-02-08T03:44:14.016Z,66.42
2019-02-08T03:44:45.242Z,66.52
2019-02-08T03:45:16.447Z,66.39
2019-02-08T03:45:47.696Z,66.41
2019-02-08T03:46:18.906Z,66.45
2019-02-08T03:46:50.101Z,66.49
2019-02-08T03:47:21.325Z,66.63
2019-02-08T03:47:52.521Z,66.60
2019-02-08T03:48:23.732Z,66.62
2019-02-08T03:48:54.939Z,66.57
2019-02-08T03:49:26.153Z,66.62
2019-02-08T03:49:57.346Z,66.73
2019-02-08T03:50:28.872Z,66.88
2019-02-08T03:51:00.140Z,67.00
2019-02-08T03:51:31.337Z,67.08
2019-02-08T03:52:02.562Z,67.14
2019-02-08T03:52:33.757Z,67.21
2019-02-08T03:53:04.965Z,67.37
2019-02-08T03:53:36.169Z,67.38
2019-02-08T03:54:07.396Z,67.07
2019-02-08T03:54:38.595Z,66.70
2019-02-08T03:55:09.799Z,66.60
2019-02-08T03:55:41.005Z,66.57
2019-02-08T03:56:12.257Z,66.57
2019-02-08T03:56:43.473Z,66.65
2019-02-08T03:57:14.687Z,66.47
2019-02-08T03:57:45.887Z,66.55
2019-02-08T03:58:17.095Z,66.65
2019-02-08T03:58:48.313Z,66.72
2019-02-08T03:59:19.520Z,66.77
2019-02-08T03:59:50.815Z,66.79
2019-02-08T04:00:22.022Z,66.68
2019-02-08T04:00:53.251Z,66.68
2019-02-08T04:01:24.460Z,66.68
2019-02-08T04:01:55.703Z,66.68
2019-02-08T04:02:26.934Z,66.67
2019-02-08T04:02:58.142Z,66.68
2019-02-08T04:03:31.690Z,66.75
2019-02-08T04:04:02.937Z,66.72
2019-02-08T04:04:34.128Z,66.72
2019-02-08T04:05:05.351Z,66.69
2019-02-08T04:05:36.560Z,66.72
2019-02-08T04:06:07.767Z,66.79
2019-02-08T04:06:39.001Z,66.82
2019-02-08T04:07:10.255Z,66.59
2019-02-08T04:07:41.460Z,66.62
2019-02-08T04:08:12.662Z,66.70
2019-02-08T04:08:43.866Z,66.81
2019-02-08T04:09:15.085Z,66.77
2019-02-08T04:09:46.303Z,66.77
2019-02-08T04:10:17.502Z,66.83
2019-02-08T04:10:48.708Z,67.55
2019-02-08T04:11:19.949Z,67.11
2019-02-08T04:11:51.168Z,67.16
2019-02-08T04:12:22.380Z,67.27
2019-02-08T04:12:53.587Z,67.37
2019-02-08T04:13:24.804Z,67.14
2019-02-08T04:13:56.017Z,67.38
2019-02-08T04:14:27.230Z,67.94
2019-02-08T04:14:58.437Z,67.07
2019-02-08T04:15:29.656Z,66.83
2019-02-08T04:16:00.865Z,66.95
2019-02-08T04:16:32.115Z,66.94
2019-02-08T04:17:03.329Z,66.92
2019-02-08T04:17:34.546Z,66.83
2019-02-08T04:18:05.766Z,66.88
2019-02-08T04:18:36.970Z,66.98
2019-02-08T04:19:08.185Z,67.14
2019-02-08T04:19:39.403Z,67.20
2019-02-08T04:20:10.608Z,67.25
2019-02-08T04:20:41.821Z,67.47
2019-02-08T04:21:13.035Z,67.64
2019-02-08T04:21:44.310Z,67.67
2019-02-08T04:22:15.503Z,67.55
2019-02-08T04:22:46.715Z,67.59
2019-02-08T04:23:17.936Z,67.62
2019-02-08T04:23:49.155Z,67.38
2019-02-08T04:24:20.356Z,67.33
2019-02-08T04:24:52.043Z,67.40
2019-02-08T04:25:23.248Z,67.40
2019-02-08T04:25:54.441Z,67.36
2019-02-08T04:26:25.675Z,67.39
2019-02-08T04:26:56.878Z,67.52
2019-02-08T04:27:28.076Z,67.62
2019-02-08T04:27:59.275Z,67.48
2019-02-08T04:28:30.511Z,67.44
2019-02-08T04:29:02.517Z,67.65
2019-02-08T04:29:33.707Z,67.82
2019-02-08T04:30:04.907Z,67.90
2019-02-08T04:30:36.106Z,67.91
2019-02-08T04:31:07.301Z,67.80
2019-02-08T04:31:38.498Z,67.71
2019-02-08T04:32:09.698Z,67.71
2019-02-08T04:32:40.897Z,67.78
2019-02-08T04:33:12.087Z,69.42
2019-02-08T04:33:43.281Z,68.89
2019-02-08T04:34:14.548Z,67.97
2019-02-08T04:34:45.765Z,68.06
2019-02-08T04:35:16.955Z,67.56
2019-02-08T04:35:48.190Z,67.24
2019-02-08T04:36:19.438Z,66.83
2019-02-08T04:36:50.684Z,66.80
2019-02-08T04:37:21.905Z,67.06
2019-02-08T04:37:53.098Z,67.17
2019-02-08T04:38:24.300Z,66.74
2019-02-08T04:38:55.505Z,66.72
2019-02-08T04:39:26.712Z,66.78
2019-02-08T04:39:57.915Z,66.79
2019-02-08T04:40:29.211Z,66.58
2019-02-08T04:41:00.406Z,66.58
2019-02-08T04:41:31.609Z,66.86
2019-02-08T04:42:02.835Z,67.21
2019-02-08T04:42:34.032Z,68.66
2019-02-08T04:43:05.240Z,68.70
2019-02-08T04:43:36.450Z,67.40
2019-02-08T04:44:07.651Z,67.25
2019-02-08T04:44:38.856Z,67.29
2019-02-08T04:45:10.066Z,66.92
2019-02-08T04:45:41.299Z,66.82
2019-02-08T04:46:12.505Z,66.74
2019-02-08T04:46:43.711Z,66.72
2019-02-08T04:47:14.996Z,66.74
2019-02-08T04:47:46.177Z,66.56
2019-02-08T04:48:17.379Z,66.42
2019-02-08T04:48:48.617Z,66.39
2019-02-08T04:49:19.807Z,67.15
2019-02-08T04:49:51.021Z,66.92
2019-02-08T04:50:22.226Z,66.69
2019-02-08T04:50:53.441Z,67.31
2019-02-08T04:51:25.775Z,66.86
2019-02-08T04:51:57.130Z,66.10
2019-02-08T04:52:28.371Z,67.92
2019-02-08T04:52:59.627Z,66.09
2019-02-08T04:53:30.836Z,65.01
2019-02-08T04:54:02.101Z,64.79
2019-02-08T04:54:38.442Z,64.68
2019-02-08T04:55:06.237Z,64.77
2019-02-08T04:55:37.445Z,64.44
2019-02-08T04:56:08.664Z,63.96
2019-02-08T04:56:39.873Z,64.00
2019-02-08T04:57:11.072Z,65.26
2019-02-08T04:57:42.314Z,65.75
2019-02-08T04:58:13.542Z,65.37
2019-02-08T04:58:44.743Z,65.06
2019-02-08T04:59:15.944Z,64.68
2019-02-08T04:59:47.151Z,64.32
2019-02-08T05:00:18.360Z,64.63
2019-02-08T05:00:49.569Z,64.34
2019-02-08T05:01:20.778Z,64.33
2019-02-08T05:01:51.984Z,64.42
2019-02-08T05:02:23.177Z,64.52
2019-02-08T05:02:54.396Z,64.75
2019-02-08T05:03:25.647Z,64.90
2019-02-08T05:03:56.931Z,64.67
2019-02-08T05:04:28.141Z,64.57
2019-02-08T05:04:59.345Z,65.31
2019-02-08T05:05:30.578Z,63.93
2019-02-08T05:06:01.787Z,63.77
2019-02-08T05:06:33.003Z,63.11
2019-02-08T05:07:04.195Z,62.85
2019-02-08T05:07:35.388Z,62.82
2019-02-08T05:08:06.587Z,62.99
2019-02-08T05:08:37.786Z,63.21
2019-02-08T05:09:09.088Z,63.19
2019-02-08T05:09:40.278Z,63.22
2019-02-08T05:10:11.465Z,63.39
2019-02-08T05:10:42.709Z,63.73
2019-02-08T05:11:13.896Z,63.16
2019-02-08T05:11:45.114Z,63.17
2019-02-08T05:12:16.320Z,63.03
2019-02-08T05:12:47.518Z,63.11
2019-02-08T05:13:18.734Z,63.27
2019-02-08T05:13:49.931Z,63.22
2019-02-08T05:14:21.139Z,63.44
2019-02-08T05:14:52.372Z,64.52
2019-02-08T05:15:23.583Z,64.22
2019-02-08T05:15:54.769Z,64.04
2019-02-08T05:16:25.960Z,64.05
2019-02-08T05:16:57.174Z,64.10
2019-02-08T05:17:28.399Z,64.17
2019-02-08T05:17:59.675Z,63.95
2019-02-08T05:18:30.906Z,63.98
2019-02-08T05:19:02.115Z,64.05
2019-02-08T05:19:33.318Z,64.05
2019-02-08T05:20:04.518Z,63.82
2019-02-08T05:20:35.718Z,63.72
2019-02-08T05:21:06.927Z,63.72
2019-02-08T05:21:38.129Z,63.60
2019-02-08T05:22:09.323Z,63.61
2019-02-08T05:22:40.528Z,63.58
2019-02-08T05:23:11.752Z,63.49
2019-02-08T05:23:43.012Z,63.29
2019-02-08T05:24:14.227Z,63.21
2019-02-08T05:24:46.154Z,63.28
2019-02-08T05:25:18.334Z,63.31
2019-02-08T05:25:49.544Z,63.33
2019-02-08T05:26:20.757Z,63.38
2019-02-08T05:26:51.962Z,63.44
2019-02-08T05:27:23.190Z,63.61
2019-02-08T05:27:54.436Z,63.74
2019-02-08T05:28:25.641Z,63.44
2019-02-08T05:28:56.893Z,63.44
2019-02-08T05:29:28.096Z,63.60
2019-02-08T05:29:59.311Z,63.81
2019-02-08T05:30:30.537Z,63.48
2019-02-08T05:31:01.742Z,63.51
2019-02-08T05:31:32.951Z,63.54
2019-02-08T05:32:04.150Z,63.92
2019-02-08T05:32:35.353Z,64.42
2019-02-08T05:33:06.553Z,64.28
2019-02-08T05:33:37.758Z,63.84
2019-02-08T05:34:09.026Z,63.71
2019-02-08T05:34:40.224Z,63.68
2019-02-08T05:35:11.432Z,63.69
2019-02-08T05:35:42.647Z,63.67
2019-02-08T05:36:13.848Z,63.51
2019-02-08T05:36:45.048Z,63.54
2019-02-08T05:37:16.248Z,63.62
2019-02-08T05:37:47.437Z,63.28
2019-02-08T05:38:18.653Z,63.24
2019-02-08T05:38:49.885Z,63.28
2019-02-08T05:39:21.171Z,63.44
2019-02-08T05:39:52.373Z,63.45
2019-02-08T05:40:23.572Z,63.48
2019-02-08T05:40:54.786Z,63.57
2019-02-08T05:41:25.976Z,64.26
2019-02-08T05:41:57.177Z,63.97
2019-02-08T05:42:28.394Z,63.83
2019-02-08T05:42:59.590Z,63.81
2019-02-08T05:43:30.800Z,63.66
2019-02-08T05:44:01.997Z,63.71
2019-02-08T05:44:33.243Z,63.87
2019-02-08T05:45:04.473Z,63.92
2019-02-08T05:45:35.749Z,63.87
2019-02-08T05:46:06.991Z,64.04
2019-02-08T05:46:38.243Z,63.90
2019-02-08T05:47:09.456Z,63.71
2019-02-08T05:47:40.657Z,63.59
2019-02-08T05:48:11.877Z,63.59
2019-02-08T05:48:43.082Z,63.58
2019-02-08T05:49:14.300Z,63.46
2019-02-08T05:49:45.516Z,63.40
2019-02-08T05:50:16.702Z,63.36
2019-02-08T05:50:47.925Z,63.38
2019-02-08T05:51:19.130Z,63.50
2019-02-08T05:51:50.377Z,63.75
2019-02-08T05:52:21.594Z,64.19
2019-02-08T05:52:52.837Z,64.26
2019-02-08T05:53:24.074Z,64.28
2019-02-08T05:53:55.291Z,64.37
2019-02-08T05:54:26.495Z,65.27
2019-02-08T05:54:57.695Z,64.28
2019-02-08T05:55:28.902Z,64.81
2019-02-08T05:56:00.146Z,65.39
2019-02-08T05:56:31.362Z,66.38
2019-02-08T05:57:02.550Z,66.32
2019-02-08T05:57:33.743Z,64.80
2019-02-08T05:58:04.967Z,64.35
2019-02-08T05:58:36.138Z,64.57
2019-02-08T05:59:07.345Z,65.23
2019-02-08T05:59:38.551Z,66.28
2019-02-08T06:00:09.772Z,66.95
2019-02-08T06:00:41.037Z,67.14
2019-02-08T06:01:12.248Z,66.76
2019-02-08T06:01:43.465Z,66.63
2019-02-08T06:02:14.677Z,66.05
2019-02-08T06:02:45.948Z,65.42
2019-02-08T06:03:17.162Z,66.17
2019-02-08T06:03:48.381Z,66.86
2019-02-08T06:04:19.595Z,66.45
2019-02-08T06:04:50.797Z,65.36
2019-02-08T06:05:22.021Z,66.53
2019-02-08T06:05:53.309Z,66.85
2019-02-08T06:06:24.510Z,67.59
2019-02-08T06:06:55.718Z,66.23
2019-02-08T06:07:26.920Z,66.20
2019-02-08T06:07:58.127Z,66.32
2019-02-08T06:08:29.338Z,66.74
2019-02-08T06:09:00.567Z,66.81
2019-02-08T06:09:31.795Z,66.96
2019-02-08T06:10:03.016Z,67.29
2019-02-08T06:10:34.222Z,66.88
2019-02-08T06:11:05.479Z,67.02
2019-02-08T06:11:36.692Z,66.13
2019-02-08T06:12:07.903Z,66.30
2019-02-08T06:12:39.111Z,66.84
2019-02-08T06:13:10.394Z,66.93
2019-02-08T06:13:41.607Z,66.86
2019-02-08T06:14:12.813Z,65.94
2019-02-08T06:14:44.016Z,65.44
2019-02-08T06:15:15.242Z,64.75
2019-02-08T06:15:46.484Z,64.34
2019-02-08T06:16:17.699Z,64.44
2019-02-08T06:16:48.907Z,65.42
2019-02-08T06:17:20.112Z,65.61
2019-02-08T06:17:51.309Z,64.69
2019-02-08T06:18:22.518Z,65.44
2019-02-08T06:18:53.729Z,65.91
2019-02-08T06:19:24.936Z,65.96
2019-02-08T06:19:56.185Z,66.00
2019-02-08T06:20:27.387Z,65.48
2019-02-08T06:20:58.607Z,65.75
2019-02-08T06:21:29.811Z,64.54
2019-02-08T06:22:01.018Z,64.30
2019-02-08T06:22:32.230Z,64.06
2019-02-08T06:23:03.436Z,64.09
2019-02-08T06:23:34.680Z,64.17
2019-02-08T06:24:05.906Z,64.15
2019-02-08T06:24:37.114Z,64.41
2019-02-08T06:25:08.324Z,64.91
2019-02-08T06:25:39.535Z,65.08
2019-02-08T06:26:10.766Z,65.10
2019-02-08T06:26:41.943Z,65.22
2019-02-08T06:27:13.188Z,65.47
2019-02-08T06:27:44.398Z,65.75
2019-02-08T06:28:15.604Z,65.80
2019-02-08T06:28:46.826Z,65.92
2019-02-08T06:29:18.030Z,65.97
2019-02-08T06:29:49.258Z,65.92
2019-02-08T06:30:20.450Z,66.17
2019-02-08T06:30:51.677Z,66.52
2019-02-08T06:31:23.792Z,66.71
2019-02-08T06:31:55.005Z,66.76
2019-02-08T06:32:26.227Z,66.89
2019-02-08T06:32:57.441Z,67.02
2019-02-08T06:33:28.652Z,66.96
2019-02-08T06:33:59.853Z,66.93
2019-02-08T06:34:31.114Z,66.89
2019-02-08T06:35:02.320Z,66.90
2019-02-08T06:35:33.528Z,65.37
2019-02-08T06:36:04.788Z,64.11
2019-02-08T06:36:35.995Z,64.43
2019-02-08T06:37:07.222Z,63.97
2019-02-08T06:37:44.095Z,64.12
2019-02-08T06:38:11.377Z,64.25
2019-02-08T06:38:42.621Z,64.20
2019-02-08T06:39:13.824Z,64.78
2019-02-08T06:39:45.058Z,64.46
2019-02-08T06:40:16.240Z,64.22
2019-02-08T06:40:47.447Z,64.48
2019-02-08T06:41:18.650Z,64.71
2019-02-08T06:41:49.868Z,64.72
2019-02-08T06:42:21.082Z,64.46